Time;durP1;ratioP1;P1;durP2;ratioP2;P2;SDS_P1;SDS_P2;PMS_P1;PMS_P2;Temp;Humidity;BMP_temperature;BMP_pressure;BME280_temperature;BME280_humidity;BME280_pressure;Samples;Min_cycle;Max_cycle;Signal;HPM_P1;HPM_P2
2022/11/20 00:01:39;;;;;;;4.72;1.50;;;;;;;18.26;47.26;94239.97;5006053;28;20034;-69
2022/11/20 00:04:05;;;;;;;3.63;1.20;;;;;;;18.25;47.15;94199.53;5007431;28;20419;-69
2022/11/20 00:06:30;;;;;;;2.53;1.27;;;;;;;18.29;46.83;94200.00;5006166;28;20435;-69
2022/11/20 00:08:57;;;;;;;2.95;0.95;;;;;;;18.36;46.68;94216.22;5007215;28;20493;-69
2022/11/20 00:11:23;;;;;;;3.67;1.10;;;;;;;18.29;46.77;94200.78;5006649;28;20026;-69
2022/11/20 00:13:50;;;;;;;5.78;1.40;;;;;;;18.34;46.95;94204.81;5009998;28;20029;-69
2022/11/20 00:16:17;;;;;;;3.72;1.10;;;;;;;18.34;46.79;94179.78;5010002;28;20045;-69
2022/11/20 00:18:43;;;;;;;4.82;1.20;;;;;;;18.38;46.64;94185.09;5009475;28;20030;-69
2022/11/20 00:21:13;;;;;;;2.53;1.13;;;;;;;18.40;47.17;94177.75;5010382;28;20034;-69
2022/11/20 00:23:39;;;;;;;4.28;1.23;;;;;;;18.47;47.30;94190.41;5009470;28;20029;-69
2022/11/20 00:26:09;;;;;;;5.05;1.30;;;;;;;18.52;46.29;94186.84;5011093;28;20078;-69
2022/11/20 00:28:34;;;;;;;3.83;1.17;;;;;;;18.55;46.25;94213.69;5009578;28;20045;-69
2022/11/20 00:31:04;;;;;;;2.72;1.40;;;;;;;18.46;46.49;94184.06;5009838;28;20399;-69
2022/11/20 00:33:30;;;;;;;3.50;1.13;;;;;;;18.51;46.24;94211.13;5009680;28;20550;-69
2022/11/20 00:36:05;;;;;;;3.67;0.93;;;;;;;18.49;46.42;94201.78;5009272;28;20414;-69
2022/11/20 00:38:31;;;;;;;3.10;1.13;;;;;;;18.50;46.67;94192.94;5010279;28;20117;-69
2022/11/20 00:40:58;;;;;;;3.78;1.20;;;;;;;18.52;46.70;94189.63;5009046;28;20030;-69
2022/11/20 00:43:24;;;;;;;5.13;1.27;;;;;;;18.51;46.63;94202.78;5010096;28;20105;-69
2022/11/20 00:45:49;;;;;;;1.70;1.05;;;;;;;18.42;46.73;94196.75;5009443;28;20030;-69
2022/11/20 00:48:14;;;;;;;3.47;1.10;;;;;;;18.51;46.92;94215.94;5009313;28;20099;-69
2022/11/20 00:50:41;;;;;;;2.10;1.10;;;;;;;18.48;47.21;94189.91;5009577;28;20022;-68
2022/11/20 00:53:06;;;;;;;2.20;1.00;;;;;;;18.46;47.07;94197.22;5009294;28;20032;-69
2022/11/20 00:55:32;;;;;;;5.03;1.10;;;;;;;18.43;47.21;94198.25;5010131;28;20025;-69
2022/11/20 00:57:57;;;;;;;5.38;1.42;;;;;;;18.45;47.23;94199.25;5008809;28;20030;-69
2022/11/20 01:00:22;;;;;;;3.53;1.10;;;;;;;18.35;47.91;94211.13;5009652;28;20034;-68
2022/11/20 01:02:48;;;;;;;5.93;1.38;;;;;;;18.30;47.79;94185.59;5008701;28;20034;-69
2022/11/20 01:05:13;;;;;;;4.47;1.25;;;;;;;18.35;47.76;94186.88;5009429;28;20377;-69
2022/11/20 01:07:39;;;;;;;4.05;1.10;;;;;;;18.37;47.82;94186.38;5009027;28;20570;-69
2022/11/20 01:10:05;;;;;;;2.45;1.15;;;;;;;18.31;48.13;94192.69;5008841;28;20100;-69
2022/11/20 01:12:30;;;;;;;3.97;1.30;;;;;;;18.38;48.07;94173.97;5008876;28;20465;-70
2022/11/20 01:14:55;;;;;;;5.15;1.67;;;;;;;18.36;48.27;94168.16;5008550;28;20033;-68
2022/11/20 01:17:21;;;;;;;4.07;1.20;;;;;;;18.29;47.85;94161.84;5009265;28;20042;-69
2022/11/20 01:19:49;;;;;;;5.38;1.30;;;;;;;18.29;48.33;94156.28;5008240;28;20045;-68
2022/11/20 01:22:14;;;;;;;4.20;1.40;;;;;;;18.27;47.89;94169.91;4991376;28;20389;-71
2022/11/20 01:24:40;;;;;;;4.00;1.40;;;;;;;18.25;48.12;94166.13;5023583;28;20068;-68
2022/11/20 01:27:05;;;;;;;3.30;1.10;;;;;;;18.20;48.33;94169.66;5008489;28;20022;-70
2022/11/20 01:29:31;;;;;;;2.75;0.90;;;;;;;18.31;48.13;94162.09;5008619;28;20025;-69
2022/11/20 01:31:56;;;;;;;4.18;1.55;;;;;;;18.30;47.99;94166.13;5009504;28;20056;-69
2022/11/20 01:34:22;;;;;;;3.78;1.35;;;;;;;18.37;47.40;94164.09;5009114;28;20397;-69
2022/11/20 01:36:47;;;;;;;3.33;1.00;;;;;;;18.41;47.11;94172.94;5008032;28;20515;-70
2022/11/20 01:39:21;;;;;;;2.05;1.10;;;;;;;18.40;47.49;94155.50;5009027;28;20030;-68
2022/11/20 01:44:45;;;;;;;2.85;0.95;;;;;;;18.48;46.43;94161.31;4993863;28;20117;-69
2022/11/20 01:47:12;;;;;;;2.95;0.90;;;;;;;18.47;46.10;94157.78;5023287;28;20500;-69
2022/11/20 01:49:38;;;;;;;3.35;0.90;;;;;;;18.37;46.29;94161.31;5006663;28;20034;-68
2022/11/20 01:52:17;;;;;;;5.20;1.05;;;;;;;18.41;46.84;94173.72;5007172;28;20030;-69
2022/11/20 01:54:55;;;;;;;11.40;1.48;;;;;;;18.42;46.30;94177.25;5006890;28;20014;-69
2022/11/20 01:57:20;;;;;;;4.10;1.17;;;;;;;18.38;46.86;94166.38;5007025;28;20519;-70
2022/11/20 01:59:50;;;;;;;2.45;0.93;;;;;;;18.42;47.03;94172.47;5023620;28;20350;-69
2022/11/20 02:02:16;;;;;;;3.38;1.17;;;;;;;18.44;47.05;94166.38;5023865;28;20033;-68
2022/11/20 02:04:41;;;;;;;1.67;0.90;;;;;;;18.48;47.04;94164.09;5007657;28;20026;-69
2022/11/20 02:07:06;;;;;;;2.60;1.00;;;;;;;18.49;46.69;94158.03;5006140;28;20029;-69
2022/11/20 02:09:32;;;;;;;2.13;1.00;;;;;;;18.47;46.57;94160.56;5008833;28;20041;-70
2022/11/20 02:11:57;;;;;;;2.90;0.93;;;;;;;18.45;46.60;94154.72;5007416;28;20037;-69
2022/11/20 02:14:23;;;;;;;3.95;1.27;;;;;;;18.50;47.02;94167.13;4990548;28;20022;-70
2022/11/20 02:16:48;;;;;;;2.53;0.98;;;;;;;18.36;47.15;94176.50;5022958;28;20045;-69
2022/11/20 02:19:26;;;;;;;3.33;1.15;;;;;;;18.43;47.14;94153.72;4990077;28;20109;-69
2022/11/20 02:22:10;;;;;;;2.47;1.10;;;;;;;18.41;47.28;94162.59;5015404;28;20065;-68
2022/11/20 02:24:35;;;;;;;3.88;1.15;;;;;;;18.41;46.94;94167.38;5007584;28;20058;-69
2022/11/20 02:27:07;;;;;;;2.75;0.93;;;;;;;18.26;46.93;94171.19;5007970;28;20033;-69
2022/11/20 02:29:50;;;;;;;2.67;1.20;;;;;;;18.25;47.36;94158.53;4989835;28;20018;-70
2022/11/20 02:32:29;;;;;;;3.63;1.00;;;;;;;18.20;47.61;94164.88;4989779;28;20034;-69
2022/11/20 02:34:54;;;;;;;2.30;0.90;;;;;;;18.24;47.56;94168.16;5007422;28;20046;-68
2022/11/20 02:37:20;;;;;;;3.28;1.10;;;;;;;18.15;47.45;94173.97;5008545;28;20080;-69
2022/11/20 02:39:52;;;;;;;3.08;1.10;;;;;;;18.15;47.73;94192.69;5008211;28;20072;-68
2022/11/20 02:42:17;;;;;;;3.63;0.95;;;;;;;18.09;47.91;94180.78;4989392;28;20530;-69
2022/11/20 02:44:43;;;;;;;3.25;1.27;;;;;;;18.08;48.66;94182.81;5007682;28;20062;-69
2022/11/20 02:47:08;;;;;;;5.65;1.50;;;;;;;18.14;48.55;94221.75;5007172;28;20601;-69
2022/11/20 02:49:34;;;;;;;4.25;1.42;;;;;;;18.15;48.33;94201.00;5007489;28;20018;-71
2022/11/20 02:51:59;;;;;;;3.55;1.40;;;;;;;18.10;48.49;94199.75;5007466;28;20029;-69
2022/11/20 02:54:25;;;;;;;1.88;1.20;;;;;;;18.00;49.00;94217.91;5006985;28;20088;-69
2022/11/20 02:56:50;;;;;;;3.72;1.10;;;;;;;18.02;48.77;94204.28;5007738;28;20550;-68
2022/11/20 02:59:16;;;;;;;5.32;1.52;;;;;;;18.06;49.08;94196.44;5006934;28;20492;-69
2022/11/20 03:01:41;;;;;;;6.13;1.40;;;;;;;17.96;49.39;94201.50;5007646;28;20526;-70
2022/11/20 03:04:07;;;;;;;3.15;1.20;;;;;;;17.99;49.29;94219.94;5007065;28;20491;-68
2022/11/20 03:06:32;;;;;;;6.40;1.35;;;;;;;17.98;49.40;94221.22;5007247;28;20499;-69
2022/11/20 03:08:58;;;;;;;7.32;1.35;;;;;;;17.94;49.09;94208.81;5007191;28;20153;-68
2022/11/20 03:11:23;;;;;;;5.47;1.42;;;;;;;17.99;50.15;94208.06;4989404;28;20384;-69
2022/11/20 03:13:48;;;;;;;7.38;1.50;;;;;;;18.04;49.36;94232.34;5007463;28;20037;-69
2022/11/20 03:16:16;;;;;;;3.85;1.35;;;;;;;17.98;49.55;94214.91;5006901;28;20407;-69
2022/11/20 03:18:41;;;;;;;4.63;1.30;;;;;;;17.97;49.83;94203.00;5007829;28;20038;-69
2022/11/20 03:21:07;;;;;;;5.45;1.30;;;;;;;17.95;50.22;94232.56;5006747;28;20081;-69
2022/11/20 03:23:33;;;;;;;4.20;1.40;;;;;;;17.85;50.16;94206.28;5007072;28;20045;-69
2022/11/20 03:26:15;;;;;;;4.63;1.58;;;;;;;17.75;50.18;94216.88;5007308;28;20037;-69
2022/11/20 03:28:41;;;;;;;3.05;1.20;;;;;;;17.84;50.08;94215.88;5006945;28;20026;-69
2022/11/20 03:31:12;;;;;;;4.45;1.30;;;;;;;17.78;50.15;94216.63;5007294;28;20053;-71
2022/11/20 03:33:39;;;;;;;2.90;1.40;;;;;;;17.77;50.34;94231.00;5006789;28;20035;-70
2022/11/20 03:36:05;;;;;;;5.30;1.30;;;;;;;17.75;50.69;94231.50;5007480;28;20029;-71
2022/11/20 03:38:31;;;;;;;3.28;1.50;;;;;;;17.78;50.57;94236.09;5006449;28;20549;-71
2022/11/20 03:41:05;;;;;;;7.43;1.63;;;;;;;17.75;50.35;94234.28;5007118;28;20053;-69
2022/11/20 03:43:30;;;;;;;3.45;1.42;;;;;;;17.76;50.73;94248.94;5007972;28;20493;-70
2022/11/20 03:45:56;;;;;;;2.70;1.20;;;;;;;17.76;50.58;94237.84;5007014;28;20041;-69
2022/11/20 03:48:21;;;;;;;9.88;2.17;;;;;;;17.69;50.67;94243.84;5009811;28;20416;-69
2022/11/20 03:50:47;;;;;;;4.03;1.50;;;;;;;17.80;50.03;94254.28;5010543;28;20519;-69
2022/11/20 03:53:13;;;;;;;4.78;1.50;;;;;;;17.86;50.04;94247.47;5011053;28;20396;-69
2022/11/20 03:55:39;;;;;;;5.78;1.50;;;;;;;17.85;49.97;94250.75;5009912;28;20033;-69
2022/11/20 03:58:04;;;;;;;4.15;1.48;;;;;;;17.85;49.60;94243.19;5010674;28;20029;-69
2022/11/20 04:00:30;;;;;;;4.63;1.20;;;;;;;17.84;49.60;94240.91;5010048;28;20026;-69
2022/11/20 04:02:58;;;;;;;4.20;1.17;;;;;;;17.82;49.67;94260.09;5010265;28;20029;-69
2022/11/20 04:05:27;;;;;;;3.33;1.27;;;;;;;17.80;49.99;94257.81;5010042;28;20034;-69
2022/11/20 04:07:52;;;;;;;4.05;1.30;;;;;;;17.88;49.64;94255.31;5010364;28;20030;-69
2022/11/20 04:10:18;;;;;;;3.58;1.20;;;;;;;17.88;49.82;94249.75;4992951;28;20038;-69
2022/11/20 04:12:43;;;;;;;3.35;1.20;;;;;;;17.93;50.09;94252.53;5009611;28;20045;-69
2022/11/20 04:15:09;;;;;;;5.90;1.08;;;;;;;17.87;49.76;94245.44;5010608;28;20037;-69
2022/11/20 04:17:34;;;;;;;4.22;1.10;;;;;;;17.86;49.77;94244.69;5010190;28;20324;-69
2022/11/20 04:20:00;;;;;;;3.97;1.20;;;;;;;17.87;49.41;94237.13;5010075;28;20411;-69
2022/11/20 04:22:25;;;;;;;1.75;0.95;;;;;;;17.80;49.31;94227.25;5009926;28;20033;-70
2022/11/20 04:24:50;;;;;;;3.03;1.10;;;;;;;17.82;49.47;94230.28;5009929;28;20080;-70
2022/11/20 04:27:16;;;;;;;2.92;1.20;;;;;;;17.85;49.20;94240.41;5010343;28;20029;-70
2022/11/20 04:29:41;;;;;;;3.42;1.00;;;;;;;17.86;48.68;94238.38;4991645;28;20074;-69
2022/11/20 04:32:07;;;;;;;4.82;1.15;;;;;;;17.78;49.00;94233.31;5010173;28;20354;-69
2022/11/20 04:34:32;;;;;;;3.40;1.10;;;;;;;17.80;49.37;94241.13;5009168;28;20029;-68
2022/11/20 04:36:58;;;;;;;4.22;0.98;;;;;;;17.73;49.30;94242.38;4992318;28;20037;-69
2022/11/20 04:39:23;;;;;;;4.63;1.35;;;;;;;17.69;49.47;94243.84;5009557;28;20033;-69
2022/11/20 04:42:27;;;;;;;2.45;1.10;;;;;;;17.73;49.60;94230.50;5009288;28;20033;-68
2022/11/20 04:44:34;;;;;;;2.45;0.85;;;;;;;17.65;49.81;94252.41;5009435;28;20113;-68
2022/11/20 04:46:59;;;;;;;1.50;0.90;;;;;;;17.58;50.23;94243.81;5009916;28;20026;-68
2022/11/20 04:49:25;;;;;;;2.63;0.90;;;;;;;17.47;49.93;94236.19;5012110;28;20048;-68
2022/11/20 04:51:53;;;;;;;3.03;1.20;;;;;;;17.50;50.27;94221.31;5024479;28;20026;-69
2022/11/20 04:54:20;;;;;;;3.78;1.00;;;;;;;17.47;50.35;94225.06;5009813;28;20077;-70
2022/11/20 04:56:47;;;;;;;2.72;0.98;;;;;;;17.49;50.03;94226.09;5009370;28;20083;-69
2022/11/20 04:59:12;;;;;;;2.97;1.25;;;;;;;17.59;49.83;94207.19;5009012;28;20025;-69
2022/11/20 05:01:38;;;;;;;4.32;0.90;;;;;;;17.63;50.19;94202.16;5009179;28;20519;-69
2022/11/20 05:04:03;;;;;;;3.67;0.80;;;;;;;17.50;50.39;94208.16;5009048;28;20460;-69
2022/11/20 05:06:29;;;;;;;2.67;1.00;;;;;;;17.53;50.17;94198.06;5009735;28;20504;-69
2022/11/20 05:08:54;;;;;;;2.75;1.20;;;;;;;17.66;50.00;94201.16;5008588;28;20393;-70
2022/11/20 05:11:20;;;;;;;2.15;0.80;;;;;;;17.58;49.84;94210.47;5009787;28;20022;-68
2022/11/20 05:13:46;;;;;;;2.92;0.90;;;;;;;17.59;49.58;94195.31;5008867;28;20400;-69
2022/11/20 05:16:16;;;;;;;4.47;1.30;;;;;;;17.52;49.98;94193.78;5009079;28;20101;-71
2022/11/20 05:18:41;;;;;;;3.28;0.80;;;;;;;17.48;50.46;94190.47;5008970;28;20083;-70
2022/11/20 05:21:07;;;;;;;1.48;0.90;;;;;;;17.48;50.30;94196.03;5008840;28;20417;-69
2022/11/20 05:23:32;;;;;;;3.03;1.00;;;;;;;17.56;49.81;94218.56;5009092;28;20050;-70
2022/11/20 05:25:58;;;;;;;5.20;0.80;;;;;;;17.54;49.92;94232.91;5008278;28;20033;-70
2022/11/20 05:28:24;;;;;;;2.85;0.70;;;;;;;17.53;49.83;94217.50;5009192;28;20116;-70
2022/11/20 05:30:49;;;;;;;1.38;0.73;;;;;;;17.60;49.82;94199.59;5008208;28;20556;-69
2022/11/20 05:33:15;;;;;;;2.25;0.88;;;;;;;17.71;49.77;94214.28;5008918;28;20025;-69
2022/11/20 05:35:40;;;;;;;2.13;1.40;;;;;;;17.78;49.75;94221.44;5008854;28;20456;-69
2022/11/20 05:38:05;;;;;;;1.90;0.70;;;;;;;17.84;49.43;94232.56;4990963;28;20032;-70
2022/11/20 05:40:31;;;;;;;2.25;0.95;;;;;;;17.86;49.38;94216.91;5008676;28;20037;-69
2022/11/20 05:42:56;;;;;;;1.25;0.93;;;;;;;17.86;49.47;94232.81;5008148;28;20026;-69
2022/11/20 05:45:22;;;;;;;2.45;0.95;;;;;;;17.85;49.34;94217.41;5008719;28;20092;-69
2022/11/20 05:47:47;;;;;;;4.85;1.40;;;;;;;17.74;50.07;94215.34;5007830;28;20052;-69
2022/11/20 05:50:14;;;;;;;2.63;1.27;;;;;;;17.72;50.55;94220.63;5008660;28;20037;-69
2022/11/20 05:52:40;;;;;;;2.78;1.00;;;;;;;17.80;50.88;94234.81;5008168;28;20022;-69
2022/11/20 05:55:06;;;;;;;5.00;1.48;;;;;;;17.77;50.56;94217.13;5009492;28;20022;-70
2022/11/20 05:57:32;;;;;;;2.78;1.15;;;;;;;17.64;50.77;94217.56;5023368;28;20108;-69
2022/11/20 05:59:57;;;;;;;2.28;1.00;;;;;;;17.67;50.72;94232.47;5007856;28;20072;-70
2022/11/20 06:02:25;;;;;;;5.18;1.50;;;;;;;17.65;50.24;94232.97;5008273;28;20029;-70
2022/11/20 06:04:51;;;;;;;5.82;1.38;;;;;;;17.55;50.96;94237.25;5007641;28;20498;-70
2022/11/20 06:07:16;;;;;;;4.30;1.10;;;;;;;17.63;49.92;94246.63;5008468;28;20030;-71
2022/11/20 06:09:42;;;;;;;4.72;1.20;;;;;;;17.69;49.82;94239.06;5007178;28;20476;-70
2022/11/20 06:12:07;;;;;;;2.90;1.35;;;;;;;17.69;49.41;94250.16;4990508;28;20598;-70
2022/11/20 06:14:33;;;;;;;2.13;1.27;;;;;;;17.77;49.90;94239.34;5008119;28;20030;-70
2022/11/20 06:16:58;;;;;;;4.45;1.00;;;;;;;17.82;49.61;94235.81;5007779;28;20488;-70
2022/11/20 06:19:24;;;;;;;4.13;1.08;;;;;;;17.70;49.98;94253.72;5008069;28;20025;-70
2022/11/20 06:21:49;;;;;;;4.00;1.13;;;;;;;17.87;49.76;94232.31;5007270;28;20497;-70
2022/11/20 06:24:15;;;;;;;4.15;1.25;;;;;;;17.98;50.44;94245.47;5007990;28;20054;-70
2022/11/20 06:26:41;;;;;;;0.80;0.70;;;;;;;18.00;49.91;94243.72;5022870;28;20018;-70
2022/11/20 06:29:06;;;;;;;3.38;1.58;;;;;;;18.11;50.28;94239.44;5008077;28;20411;-69
2022/11/20 06:31:34;;;;;;;4.70;1.67;;;;;;;18.17;49.62;94237.41;5007507;28;20408;-70
2022/11/20 06:34:00;;;;;;;4.80;1.55;;;;;;;18.21;49.18;94244.25;5007566;28;20032;-70
2022/11/20 06:36:26;;;;;;;3.78;1.50;;;;;;;18.26;49.08;94251.09;5007573;28;20022;-69
2022/11/20 06:38:51;;;;;;;6.40;2.33;;;;;;;18.40;48.83;94235.44;5007201;28;20034;-73
2022/11/20 06:41:19;;;;;;;3.13;2.15;;;;;;;18.45;48.77;94248.59;5007609;28;20085;-69
2022/11/20 06:43:45;;;;;;;3.92;0.88;;;;;;;18.40;47.99;94266.78;5006989;28;20121;-70
2022/11/20 06:46:11;;;;;;;2.10;1.20;;;;;;;18.48;48.15;94272.63;5007751;28;20125;-70
2022/11/20 06:48:36;;;;;;;5.75;1.33;;;;;;;18.47;48.17;94271.88;5007008;28;20508;-70
2022/11/20 06:51:06;;;;;;;3.15;1.40;;;;;;;18.43;48.00;94270.59;5007721;28;20085;-69
2022/11/20 06:53:32;;;;;;;4.00;1.50;;;;;;;18.43;47.85;94243.53;5007287;28;20064;-71
2022/11/20 06:55:57;;;;;;;3.75;1.40;;;;;;;18.26;48.11;94259.44;5007139;28;20026;-69
2022/11/20 06:58:23;;;;;;;4.82;1.38;;;;;;;18.36;47.48;94246.06;5007585;28;20034;-69
2022/11/20 07:00:48;;;;;;;3.75;1.00;;;;;;;18.40;47.22;94254.91;5008038;28;20061;-71
2022/11/20 07:03:14;;;;;;;3.72;1.33;;;;;;;18.30;47.76;94262.75;5007520;28;20424;-69
2022/11/20 07:05:40;;;;;;;2.50;1.75;;;;;;;18.44;47.64;94266.56;5007201;28;20026;-69
2022/11/20 07:08:05;;;;;;;4.22;1.27;;;;;;;18.36;47.75;94277.44;5022503;28;20026;-69
2022/11/20 07:10:31;;;;;;;4.00;1.20;;;;;;;18.29;47.55;94283.47;5006935;28;20105;-71
2022/11/20 07:12:56;;;;;;;2.28;1.02;;;;;;;18.14;47.81;94275.34;5007193;28;20022;-70
2022/11/20 07:15:23;;;;;;;4.15;0.90;;;;;;;18.09;48.29;94280.91;5007453;28;20033;-69
2022/11/20 07:17:48;;;;;;;3.63;1.40;;;;;;;18.15;47.87;94284.47;4981700;28;20030;-69
2022/11/20 07:20:14;;;;;;;2.58;1.00;;;;;;;18.25;48.02;94283.72;5006950;28;20407;-69
2022/11/20 07:22:39;;;;;;;3.33;1.60;;;;;;;18.33;47.48;94288.78;4992894;28;20511;-69
2022/11/20 07:25:05;;;;;;;3.38;1.00;;;;;;;18.35;47.69;94280.69;5011316;28;20037;-70
2022/11/20 07:27:31;;;;;;;4.25;1.40;;;;;;;18.34;48.11;94284.75;5011011;28;20057;-70
2022/11/20 07:29:56;;;;;;;3.55;1.08;;;;;;;18.39;48.15;94298.66;5011595;28;20369;-70
2022/11/20 07:32:22;;;;;;;4.25;1.60;;;;;;;18.23;48.92;94286.22;5012109;28;20030;-70
2022/11/20 07:34:47;;;;;;;3.38;1.20;;;;;;;18.25;48.70;94289.28;5013353;28;20033;-70
2022/11/20 07:37:13;;;;;;;2.83;1.35;;;;;;;18.22;48.93;94292.31;5010887;28;20025;-70
2022/11/20 07:39:39;;;;;;;4.72;1.40;;;;;;;18.24;48.84;94300.94;5010563;28;20033;-69
2022/11/20 07:42:05;;;;;;;4.38;1.10;;;;;;;18.26;49.27;94293.59;5010677;28;20022;-69
2022/11/20 07:44:31;;;;;;;5.30;1.58;;;;;;;18.29;48.47;94300.94;5025275;28;20037;-69
2022/11/20 07:46:56;;;;;;;3.75;1.17;;;;;;;18.36;48.92;94287.81;5010981;28;20022;-69
2022/11/20 07:49:21;;;;;;;7.15;1.70;;;;;;;18.43;48.75;94284.50;5010091;28;20018;-69
2022/11/20 07:51:49;;;;;;;6.93;1.70;;;;;;;18.49;48.67;94285.28;5010804;28;20025;-69
2022/11/20 07:54:15;;;;;;;5.75;1.85;;;;;;;18.57;49.15;94291.84;5008533;28;20508;-70
2022/11/20 07:56:40;;;;;;;6.80;1.48;;;;;;;18.64;48.49;94279.47;5010424;28;20508;-69
2022/11/20 07:59:06;;;;;;;4.55;1.95;;;;;;;18.65;48.09;94275.44;5010487;28;20029;-70
2022/11/20 08:01:31;;;;;;;8.80;3.55;;;;;;;18.68;47.85;94282.78;5025217;28;20045;-69
2022/11/20 08:03:57;;;;;;;8.60;3.72;;;;;;;18.67;48.26;94301.50;5010928;28;20520;-69
2022/11/20 08:06:24;;;;;;;8.05;2.88;;;;;;;18.77;48.51;94304.81;5009911;28;20029;-71
2022/11/20 08:08:50;;;;;;;4.85;1.80;;;;;;;18.79;48.62;94303.03;5010510;28;20087;-69
2022/11/20 08:14:15;;;;;;;3.90;1.90;;;;;;;18.94;48.51;94285.31;5010204;28;20111;-70
2022/11/20 08:16:47;;;;;;;7.22;2.30;;;;;;;18.91;47.59;94291.91;5010290;28;20419;-70
2022/11/20 08:19:13;;;;;;;8.25;2.00;;;;;;;19.02;48.05;94295.44;5009358;28;20495;-71
2022/11/20 08:21:40;;;;;;;5.50;1.38;;;;;;;18.99;46.92;94285.31;5010417;28;20045;-69
2022/11/20 08:24:05;;;;;;;4.82;1.98;;;;;;;19.11;46.96;94286.06;5009850;28;20053;-69
2022/11/20 08:26:31;;;;;;;3.47;1.70;;;;;;;19.08;46.84;94301.00;5010101;28;20121;-70
2022/11/20 08:28:56;;;;;;;6.18;1.90;;;;;;;19.08;46.37;94317.72;5009889;28;20034;-69
2022/11/20 08:31:25;;;;;;;4.82;1.55;;;;;;;19.10;46.46;94315.97;5009561;28;20032;-69
2022/11/20 08:33:51;;;;;;;5.28;2.13;;;;;;;19.13;46.67;94319.75;5009118;28;20410;-70
2022/11/20 08:36:17;;;;;;;4.35;1.92;;;;;;;19.18;47.18;94309.88;5009525;28;20022;-69
2022/11/20 08:38:42;;;;;;;4.40;1.83;;;;;;;19.18;48.24;94312.66;5025238;28;20108;-70
2022/11/20 08:44:04;;;;;;;6.65;1.77;;;;;;;18.92;50.64;94327.59;5010148;28;20037;-71
2022/11/20 08:46:36;;;;;;;4.00;1.92;;;;;;;18.71;50.73;94348.59;4991979;28;20030;-70
2022/11/20 08:49:01;;;;;;;4.72;2.05;;;;;;;18.67;51.76;94351.63;5009295;28;20123;-69
2022/11/20 08:51:27;;;;;;;7.35;2.15;;;;;;;18.31;54.16;94337.34;5009896;28;20451;-70
2022/11/20 08:53:52;;;;;;;5.05;1.73;;;;;;;18.26;54.71;94360.34;5009103;28;20022;-71
2022/11/20 08:56:17;;;;;;;7.68;1.60;;;;;;;18.13;55.88;94321.13;5009917;28;20029;-69
2022/11/20 08:58:43;;;;;;;5.35;1.70;;;;;;;17.98;56.44;94323.34;5009185;28;20030;-70
2022/11/20 09:01:09;;;;;;;7.32;2.05;;;;;;;17.89;57.35;94316.00;5009309;28;20066;-70
2022/11/20 09:03:34;;;;;;;6.80;1.95;;;;;;;17.67;57.93;94333.31;5009001;28;20029;-69
2022/11/20 09:06:00;;;;;;;8.70;2.35;;;;;;;17.62;58.46;94322.16;5009515;28;20030;-69
2022/11/20 09:08:26;;;;;;;4.53;2.08;;;;;;;17.35;59.25;94338.16;5009768;28;20025;-69
2022/11/20 09:10:52;;;;;;;6.35;2.50;;;;;;;17.17;59.48;94346.88;5009410;28;20058;-71
2022/11/20 09:13:19;;;;;;;8.40;2.10;;;;;;;16.99;59.63;94357.09;5010484;28;20491;-69
2022/11/20 09:15:44;;;;;;;7.28;1.95;;;;;;;16.86;60.31;94347.63;5008559;28;20041;-69
2022/11/20 09:18:10;;;;;;;5.35;1.88;;;;;;;16.90;60.72;94354.50;5024308;28;20022;-70
2022/11/20 09:20:35;;;;;;;8.65;1.65;;;;;;;16.79;61.15;94345.31;4990951;28;20516;-69
2022/11/20 09:23:01;;;;;;;7.43;1.88;;;;;;;16.63;61.44;94347.44;5008881;28;20419;-68
2022/11/20 09:25:26;;;;;;;7.50;2.85;;;;;;;16.41;62.31;94341.66;5008816;28;20415;-69
2022/11/20 09:27:58;;;;;;;4.05;1.90;;;;;;;16.48;62.93;94327.34;5008968;28;20488;-69
2022/11/20 09:30:24;;;;;;;6.25;1.80;;;;;;;16.22;62.82;94334.91;5009179;28;20033;-70
2022/11/20 09:32:49;;;;;;;7.63;2.20;;;;;;;16.31;62.26;94321.66;5008714;28;20096;-69
2022/11/20 09:35:15;;;;;;;3.38;1.50;;;;;;;16.40;62.47;94317.94;5009213;28;20029;-69
2022/11/20 09:37:40;;;;;;;4.40;1.67;;;;;;;16.54;62.59;94308.00;5008309;28;20534;-70
2022/11/20 09:40:07;;;;;;;5.45;1.75;;;;;;;16.57;61.89;94293.88;5008451;28;20038;-68
2022/11/20 09:43:01;;;;;;;9.25;2.17;;;;;;;16.93;61.01;94300.78;4989268;28;20037;-69
2022/11/20 09:45:38;;;;;;;;;;;;;;;17.90;58.63;94308.41;4990036;28;20049;-68
2022/11/20 09:48:31;;;;;;;4.90;1.50;;;;;;;18.63;56.10;94306.53;5024130;28;19918;-69
2022/11/20 09:51:15;;;;;;;7.15;2.00;;;;;;;18.54;55.72;94296.41;5008576;28;20029;-70
2022/11/20 09:53:52;;;;;;;3.33;1.58;;;;;;;18.98;55.80;94292.16;5022637;28;20026;-69
2022/11/20 09:56:17;;;;;;;4.68;1.65;;;;;;;20.13;54.39;94285.25;5008822;28;20037;-69
2022/11/20 09:58:45;;;;;;;6.57;2.00;;;;;;;21.89;48.81;94289.66;5006494;28;20030;-69
2022/11/20 10:01:33;;;;;;;7.78;1.92;;;;;;;23.44;46.22;94280.78;5023736;28;20034;-70
2022/11/20 10:04:03;;;;;;;5.25;1.60;;;;;;;25.98;38.76;94282.97;5008558;28;20208;-68
2022/11/20 10:06:33;;;;;;;5.30;1.58;;;;;;;27.72;35.69;94272.72;5008286;28;20022;-69
2022/11/20 10:09:13;;;;;;;5.43;1.65;;;;;;;29.07;34.51;94289.00;5008630;28;20477;-71
2022/11/20 10:12:06;;;;;;;8.77;2.20;;;;;;;29.94;32.20;94275.13;5021767;28;20034;-69
2022/11/20 10:14:37;;;;;;;7.00;1.80;;;;;;;29.63;32.77;94275.41;5008451;28;20038;-69
2022/11/20 10:17:24;;;;;;;8.73;2.28;;;;;;;28.87;33.42;94280.81;5008925;28;20030;-69
2022/11/20 10:20:02;;;;;;;10.40;3.33;;;;;;;28.17;34.53;94265.47;5021449;28;20714;-70
2022/11/20 10:22:52;;;;;;;8.05;2.70;;;;;;;27.60;35.14;94277.22;5008372;28;20041;-69
2022/11/20 10:25:19;;;;;;;11.57;3.30;;;;;;;26.93;36.61;94266.06;5007976;28;20021;-70
2022/11/20 10:27:44;;;;;;;3.78;1.90;;;;;;;26.38;36.90;94264.41;5023284;28;20033;-69
2022/11/20 10:30:11;;;;;;;8.40;2.38;;;;;;;25.98;37.85;94277.34;5007671;28;20021;-69
2022/11/20 10:32:40;;;;;;;11.43;5.53;;;;;;;25.46;37.32;94296.09;4989800;28;20592;-70
2022/11/20 10:35:22;;;;;;;8.30;2.60;;;;;;;24.51;38.27;94299.09;5022601;28;20026;-69
2022/11/20 10:37:51;;;;;;;8.65;2.60;;;;;;;24.04;39.52;94309.00;5006934;28;20404;-70
2022/11/20 10:40:37;;;;;;;8.90;2.60;;;;;;;23.33;41.25;94306.97;5022550;28;20108;-69
2022/11/20 10:43:09;;;;;;;6.65;2.22;;;;;;;22.49;44.10;94292.22;5007262;28;20488;-70
2022/11/20 10:46:01;;;;;;;9.15;2.70;;;;;;;21.33;46.75;94284.66;5022608;28;20033;-76
2022/11/20 10:48:27;;;;;;;7.15;2.97;;;;;;;21.08;47.55;94267.09;5006797;28;20052;-78
2022/11/20 10:51:12;;;;;;;8.88;2.28;;;;;;;20.55;49.31;94280.47;5022018;28;20026;-78
2022/11/20 10:53:52;;;;;;;10.13;3.00;;;;;;;20.02;51.54;94290.16;5021442;28;20036;-71
2022/11/20 10:56:31;;;;;;;9.93;3.38;;;;;;;19.54;52.90;94299.66;5021363;28;20034;-71
2022/11/20 10:59:08;;;;;;;9.75;3.15;;;;;;;19.09;51.97;94316.44;4988951;28;20353;-72
2022/11/20 11:01:39;;;;;;;4.45;1.65;;;;;;;18.57;51.60;94305.78;5007686;28;20022;-71
2022/11/20 11:04:27;;;;;;;2.22;1.15;;;;;;;17.95;52.16;94304.88;5007005;28;20037;-71
2022/11/20 11:06:52;;;;;;;5.65;1.50;;;;;;;17.47;54.63;94336.97;5003027;28;20104;-72
2022/11/20 11:09:21;;;;;;;6.50;1.27;;;;;;;16.60;57.85;94386.50;5006160;28;20026;-71
2022/11/20 11:11:46;;;;;;;5.85;0.90;;;;;;;15.90;58.34;94309.88;5021901;28;20034;-71
2022/11/20 11:14:15;;;;;;;3.72;1.02;;;;;;;15.23;58.94;94320.81;5006959;28;20042;-71
2022/11/20 11:16:55;;;;;;;2.50;0.90;;;;;;;14.79;60.93;94291.22;5007028;28;20485;-71
2022/11/20 11:19:20;;;;;;;4.53;1.30;;;;;;;14.61;61.50;94306.03;5007230;28;20484;-71
2022/11/20 11:21:49;;;;;;;4.18;1.63;;;;;;;14.42;62.11;94290.88;5007766;28;20088;-71
2022/11/20 11:24:28;;;;;;;3.13;1.80;;;;;;;14.33;62.99;94275.13;5007761;28;20026;-71
2022/11/20 11:27:10;;;;;;;4.18;1.60;;;;;;;14.13;62.01;94274.28;5006989;28;20045;-71
2022/11/20 11:29:35;;;;;;;2.35;1.10;;;;;;;13.91;62.58;94261.59;5006847;28;20586;-71
2022/11/20 11:32:10;;;;;;;4.40;1.20;;;;;;;13.94;62.72;94254.34;5007158;28;20033;-71
2022/11/20 11:34:36;;;;;;;3.28;1.05;;;;;;;13.85;63.32;94249.66;5007312;28;20061;-70
2022/11/20 11:37:03;;;;;;;3.53;0.98;;;;;;;13.76;62.82;94266.31;5007078;28;20022;-71
2022/11/20 11:39:29;;;;;;;1.85;0.80;;;;;;;13.85;63.37;94280.06;5007060;28;20079;-72
2022/11/20 11:41:54;;;;;;;1.38;0.70;;;;;;;13.88;61.66;94276.34;5021542;28;20068;-71
2022/11/20 11:47:11;;;;;;;2.92;0.90;;;;;;;13.86;61.48;94284.34;5019825;28;20133;-72
2022/11/20 11:49:36;;;;;;;4.63;1.10;;;;;;;13.88;60.51;94292.16;5004914;28;20265;-71